Worcester, MA

5:39 AM EST on November 26, 2014 (GMT -0500)
Thornton Rd. | Change Station
CLOSE
Current Station
Personal Weather Station
Location: Worcester, MA
Elevation: 656 ft
Nearby Weather Stations
Active Advisory: Winter Storm Warning

Elev 656 ft 42.30 °N, 71.79 °W | Updated 6 seconds ago

Partly Cloudy
Partly Cloudy
41.0 °F
Feels Like 39 °F
N
3.8
Wind Variable Wind from NW
Gusts 8.3 mph

Today
High -- | Low -- °F
--% Chance of Precip.
Yesterday
High -- | Low -- °F
Precip. -- in
6:50 AM 4:17 PM
Waxing Crescent, 18% visible
Pressure 30.18 in
Visibility 10.0 miles
Clouds Mostly Cloudy 12000 ft
Windchill 39 °F
Dew Point -2 °F
Humidity 16%
Rainfall 0.00 in
Snow Depth Not available.
UV 0 out of 12
Pollen .10 out of 12
Air Quality Not available.
Flu Activity Not available.
METAR KORH 260954Z AUTO 34003KT 10SM BKN120 03/M02 A3016 RMK AO2 SLP220 T00331022

More Conditions Fewer Conditions

Pressure 30.18 in
Visibility 10.0 miles
Clouds Mostly Cloudy 12000 ft
Windchill 39 °F
Dew Point -2 °F
Humidity 16%
Rainfall 0.00 in
Snow Depth Not available.
UV 0 out of 12
Pollen .10 out of 12
Air Quality Not available.
Flu Activity Not available.
METAR KORH 260954Z AUTO 34003KT 10SM BKN120 03/M02 A3016 RMK AO2 SLP220 T00331022

More Conditions Fewer Conditions

10-Day Weather Forecast

Almanac

Astronomy

Nov. 26, 2014 Rise Set
Actual Time
Civil Twilight
Nautical Twilight
Astronomical Twilight
Moon
Length of Visible Light
Length of Day
Tomorrow will be .
, % of the Moon is Illuminated

Today's Extremes

State Highs State Lows

Community

WunderPhotos

Upload Photos

1,773,708 photos uploaded!

WunderBlogs® & News

Nearby

Air Quality

  Air Quality AQ Index Pollutant
Not available.

Snow Depth

Station Depth Elevation

Earthquake Activity

City Distance Mag. Time & Date
Minimum magnitude displayed is 2.5.

Coastal Water Temperatures

Place Temperature

Nearby Weather Stations